aviador You're here:

KMSP Decoded Metar

MINNEAPOLIS in MN, USA
Report Time2018-01-18 09:53:00
UTC Time2018-01-18 10:06:14
Flight Rules vfr VFR
Wind220° at 07 kt
W.Decomp.*RWY 22: 7.0 kt HW 0 kt LCW
RWY 17: 4.5 kt HW 5.4 kt RCW
RWY 30: 1.2 kt HW 6.9 kt LCW
W.Rank220° ranks 13
Current wind is below 220° avg. (7.1)
Visibility9999 m
Phenomena:N/A
Clouds:Broken 230 Hf
Expected CloudBase > 1,200 ft AGL from Temp-Dew spread
Ceiling23,000 ft
Temp-5°C (ISA -18)
Dew Point-8°C (80% RH)
AAT-10.4°C
QNH1015 hPa
Density Alt-1,404 ft
Elevation869 ft
Report Wrong Elevation
Raw Report
METAR KMSP 180953Z 22007KT 10SM BKN230 M05/M08 A2996 RMK AO2 SLP159
T10501078=

Extra information for KMSP:More info

Metar Taf Metar & Taf Last 4 Metars F.Rules Stats Wind Profile Meteogram Temp Stats Airport Information Weather charts Add Link Nearby VenuesMetar ALERT Operation Metar Decoded Social comments

AIRNAV info for KMSP